JAL462 RJOS-RJTT
Flight info
| Callsign | JAL462 |
|---|---|
| Flight time | 0h 51m |
| Altitude | 33000 |
| Route | DCT HONMA DCT KMANO DCT KILAP Y43 MENUR Y21 AKSEL AKSEL1A |
| Aircraft | B738/M-VGDW/C |
Departure
| Time | 2026-04-25 08:50 |
|---|---|
| Airport | Tokushima Awaodori Airport / JMSDF Tokushima Air Base (RJOS) |
Arrival
| Time | 2026-04-25 09:41 |
|---|---|
| Airport | Tokyo Haneda International Airport (RJTT) |
| Time | Latitude | Longitude | Altitude | Speed | Heading |
|---|---|---|---|---|---|
| 2026-04-25 08:21 | 34.13374 | 134.61781 | 21 ft | 0 kts | 13° |
| 2026-04-25 08:40 | 34.13371 | 134.61780 | 21 ft | 2 kts | 13° |
| 2026-04-25 08:40 | 34.13346 | 134.61773 | 22 ft | 4 kts | 12° |
| 2026-04-25 08:40 | 34.13320 | 134.61768 | 23 ft | 4 kts | 2° |
| 2026-04-25 08:40 | 34.13293 | 134.61769 | 24 ft | 4 kts | 347° |
| 2026-04-25 08:41 | 34.13269 | 134.61780 | 24 ft | 4 kts | 319° |
| 2026-04-25 08:41 | 34.13261 | 134.61789 | 21 ft | 1 kts | 314° |
| 2026-04-25 08:45 | 34.13263 | 134.61786 | 25 ft | 2 kts | 311° |
| 2026-04-25 08:45 | 34.13262 | 134.61727 | 22 ft | 10 kts | 252° |
| 2026-04-25 08:45 | 34.13275 | 134.61584 | 21 ft | 19 kts | 282° |
| 2026-04-25 08:45 | 34.13310 | 134.61390 | 21 ft | 27 kts | 282° |
| 2026-04-25 08:46 | 34.13350 | 134.61175 | 21 ft | 26 kts | 282° |
| 2026-04-25 08:46 | 34.13375 | 134.61038 | 21 ft | 24 kts | 283° |
| 2026-04-25 08:46 | 34.13412 | 134.60845 | 21 ft | 23 kts | 283° |
| 2026-04-25 08:46 | 34.13446 | 134.60660 | 21 ft | 23 kts | 282° |
| 2026-04-25 08:47 | 34.13499 | 134.60372 | 21 ft | 28 kts | 282° |
| 2026-04-25 08:47 | 34.13527 | 134.60220 | 21 ft | 27 kts | 282° |
| 2026-04-25 08:47 | 34.13566 | 134.60005 | 21 ft | 25 kts | 282° |
| 2026-04-25 08:47 | 34.13599 | 134.59828 | 21 ft | 19 kts | 283° |
| 2026-04-25 08:48 | 34.13618 | 134.59705 | 21 ft | 13 kts | 266° |
| 2026-04-25 08:48 | 34.13557 | 134.59641 | 21 ft | 12 kts | 195° |
| 2026-04-25 08:48 | 34.13482 | 134.59632 | 21 ft | 10 kts | 161° |
| 2026-04-25 08:48 | 34.13460 | 134.59665 | 23 ft | 3 kts | 109° |
| 2026-04-25 08:49 | 34.13456 | 134.59689 | 22 ft | 3 kts | 102° |
| 2026-04-25 08:49 | 34.13442 | 134.59761 | 23 ft | 27 kts | 102° |
| 2026-04-25 08:49 | 34.13344 | 134.60294 | 26 ft | 101 kts | 102° |
| 2026-04-25 08:49 | 34.13048 | 134.61832 | 151 ft | 168 kts | 105° |
| 2026-04-25 08:50 | 34.12867 | 134.62738 | 643 ft | 167 kts | 105° |
| 2026-04-25 08:50 | 34.12373 | 134.63983 | 1334 ft | 174 kts | 137° |
| 2026-04-25 08:50 | 34.11352 | 134.64714 | 2169 ft | 166 kts | 155° |
| 2026-04-25 08:50 | 34.10315 | 134.65332 | 2684 ft | 172 kts | 148° |
| 2026-04-25 08:51 | 34.09298 | 134.66180 | 3154 ft | 179 kts | 142° |
| 2026-04-25 08:51 | 34.08317 | 134.67141 | 3534 ft | 192 kts | 140° |
| 2026-04-25 08:51 | 34.07199 | 134.68215 | 3627 ft | 214 kts | 141° |
| 2026-04-25 08:51 | 34.05980 | 134.69372 | 3765 ft | 234 kts | 141° |
| 2026-04-25 08:52 | 34.04648 | 134.70635 | 3945 ft | 252 kts | 141° |
| 2026-04-25 08:52 | 34.03248 | 134.71960 | 4423 ft | 260 kts | 141° |
| 2026-04-25 08:52 | 34.01858 | 134.73369 | 5159 ft | 262 kts | 137° |
| 2026-04-25 08:52 | 34.00541 | 134.74861 | 5814 ft | 265 kts | 136° |
| 2026-04-25 08:53 | 33.99193 | 134.76406 | 6481 ft | 269 kts | 137° |
| 2026-04-25 08:53 | 33.97822 | 134.77974 | 7148 ft | 272 kts | 137° |
| 2026-04-25 08:53 | 33.96425 | 134.79556 | 7815 ft | 276 kts | 137° |
| 2026-04-25 08:53 | 33.95023 | 134.81138 | 8463 ft | 281 kts | 137° |
| 2026-04-25 08:54 | 33.93581 | 134.82762 | 9145 ft | 286 kts | 137° |
| 2026-04-25 08:54 | 33.92112 | 134.84414 | 9859 ft | 290 kts | 137° |
| 2026-04-25 08:54 | 33.90628 | 134.86084 | 10380 ft | 301 kts | 138° |
| 2026-04-25 08:54 | 33.89029 | 134.87880 | 10558 ft | 324 kts | 137° |
| 2026-04-25 08:55 | 33.87359 | 134.89756 | 11022 ft | 334 kts | 138° |
| 2026-04-25 08:55 | 33.85663 | 134.91660 | 11668 ft | 338 kts | 138° |
| 2026-04-25 08:55 | 33.83931 | 134.93605 | 12393 ft | 341 kts | 137° |
| 2026-04-25 08:55 | 33.82474 | 134.95890 | 13070 ft | 349 kts | 117° |
| 2026-04-25 08:56 | 33.81696 | 134.98681 | 13815 ft | 354 kts | 106° |
| 2026-04-25 08:56 | 33.81074 | 135.01574 | 14436 ft | 360 kts | 105° |
| 2026-04-25 08:56 | 33.80454 | 135.04486 | 14993 ft | 367 kts | 106° |
| 2026-04-25 08:56 | 33.79791 | 135.07486 | 15595 ft | 373 kts | 107° |
| 2026-04-25 08:57 | 33.79113 | 135.10490 | 16201 ft | 379 kts | 107° |
| 2026-04-25 08:57 | 33.78528 | 135.13622 | 16791 ft | 386 kts | 99° |
| 2026-04-25 08:57 | 33.78211 | 135.16819 | 17379 ft | 392 kts | 97° |
| 2026-04-25 08:57 | 33.77933 | 135.20130 | 17965 ft | 399 kts | 97° |
| 2026-04-25 08:58 | 33.77667 | 135.23436 | 18522 ft | 405 kts | 97° |
| 2026-04-25 08:58 | 33.77391 | 135.26842 | 19039 ft | 410 kts | 97° |
| 2026-04-25 08:58 | 33.77107 | 135.30256 | 19580 ft | 414 kts | 97° |
| 2026-04-25 08:58 | 33.76811 | 135.33728 | 20120 ft | 418 kts | 97° |
| 2026-04-25 08:59 | 33.76510 | 135.37188 | 20637 ft | 423 kts | 98° |
| 2026-04-25 08:59 | 33.76198 | 135.40720 | 21162 ft | 427 kts | 98° |
| 2026-04-25 08:59 | 33.75878 | 135.44317 | 21669 ft | 432 kts | 98° |
| 2026-04-25 08:59 | 33.75558 | 135.47891 | 22188 ft | 436 kts | 98° |
| 2026-04-25 09:00 | 33.75229 | 135.51544 | 22713 ft | 440 kts | 98° |
| 2026-04-25 09:00 | 33.74897 | 135.55223 | 23185 ft | 445 kts | 99° |
| 2026-04-25 09:00 | 33.74564 | 135.58903 | 23665 ft | 449 kts | 99° |
| 2026-04-25 09:00 | 33.74224 | 135.62662 | 24014 ft | 454 kts | 99° |
| 2026-04-25 09:01 | 33.73880 | 135.66434 | 24318 ft | 460 kts | 100° |
| 2026-04-25 09:01 | 33.73529 | 135.70249 | 24637 ft | 464 kts | 100° |
| 2026-04-25 09:01 | 33.73079 | 135.75149 | 25144 ft | 468 kts | 100° |
| 2026-04-25 09:01 | 33.72722 | 135.79023 | 25436 ft | 475 kts | 101° |
| 2026-04-25 09:02 | 33.72354 | 135.83008 | 25762 ft | 480 kts | 101° |
| 2026-04-25 09:02 | 33.71983 | 135.87009 | 26121 ft | 485 kts | 101° |
| 2026-04-25 09:02 | 33.71734 | 135.89690 | 26416 ft | 487 kts | 101° |
| 2026-04-25 09:02 | 33.71228 | 135.95095 | 26813 ft | 494 kts | 101° |
| 2026-04-25 09:03 | 33.70839 | 135.99223 | 27054 ft | 499 kts | 102° |
| 2026-04-25 09:03 | 33.70486 | 136.02982 | 27356 ft | 502 kts | 102° |
| 2026-04-25 09:03 | 33.70093 | 136.07173 | 27693 ft | 506 kts | 102° |
| 2026-04-25 09:03 | 33.69694 | 136.11401 | 27976 ft | 510 kts | 102° |
| 2026-04-25 09:04 | 33.69290 | 136.15650 | 28270 ft | 515 kts | 102° |
| 2026-04-25 09:04 | 33.68880 | 136.19953 | 28551 ft | 519 kts | 102° |
| 2026-04-25 09:04 | 33.68470 | 136.24232 | 28843 ft | 523 kts | 102° |
| 2026-04-25 09:04 | 33.68051 | 136.28590 | 29124 ft | 526 kts | 103° |
| 2026-04-25 09:05 | 33.67627 | 136.32985 | 29403 ft | 530 kts | 103° |
| 2026-04-25 09:05 | 33.67203 | 136.37365 | 29669 ft | 534 kts | 103° |
| 2026-04-25 09:05 | 33.66770 | 136.41821 | 29900 ft | 538 kts | 103° |
| 2026-04-25 09:05 | 33.66338 | 136.46258 | 30163 ft | 542 kts | 103° |
| 2026-04-25 09:06 | 33.65897 | 136.50771 | 30460 ft | 543 kts | 103° |
| 2026-04-25 09:06 | 33.65456 | 136.55280 | 30855 ft | 542 kts | 103° |
| 2026-04-25 09:06 | 33.65021 | 136.59719 | 31279 ft | 539 kts | 104° |
| 2026-04-25 09:06 | 33.64577 | 136.64215 | 31711 ft | 536 kts | 104° |
| 2026-04-25 09:07 | 33.64140 | 136.68611 | 32106 ft | 535 kts | 104° |
| 2026-04-25 09:07 | 33.63763 | 136.73034 | 32441 ft | 539 kts | 99° |
| 2026-04-25 09:07 | 33.63793 | 136.77586 | 32750 ft | 546 kts | 90° |
| 2026-04-25 09:07 | 33.64349 | 136.82080 | 33039 ft | 553 kts | 81° |
| 2026-04-25 09:08 | 33.65230 | 136.86596 | 33216 ft | 556 kts | 79° |
| 2026-04-25 09:08 | 33.67099 | 136.95627 | 33191 ft | 558 kts | 79° |
| 2026-04-25 09:09 | 33.68843 | 137.04638 | 33181 ft | 551 kts | 81° |
| 2026-04-25 09:09 | 33.70511 | 137.13596 | 33195 ft | 550 kts | 81° |
| 2026-04-25 09:10 | 33.72159 | 137.22536 | 33194 ft | 551 kts | 81° |
| 2026-04-25 09:10 | 33.73805 | 137.31518 | 33193 ft | 551 kts | 81° |
| 2026-04-25 09:11 | 33.76270 | 137.45014 | 33197 ft | 551 kts | 81° |
| 2026-04-25 09:11 | 33.77907 | 137.54028 | 33195 ft | 552 kts | 81° |
| 2026-04-25 09:12 | 33.79529 | 137.62990 | 33194 ft | 552 kts | 81° |
| 2026-04-25 09:12 | 33.81160 | 137.72032 | 33195 ft | 552 kts | 81° |
| 2026-04-25 09:13 | 33.82781 | 137.81033 | 33196 ft | 552 kts | 81° |
| 2026-04-25 09:13 | 33.84392 | 137.90018 | 33197 ft | 552 kts | 81° |
| 2026-04-25 09:14 | 33.86002 | 137.99047 | 33201 ft | 551 kts | 81° |
| 2026-04-25 09:14 | 33.87597 | 138.08030 | 33197 ft | 551 kts | 81° |
| 2026-04-25 09:15 | 33.89186 | 138.17013 | 33201 ft | 550 kts | 81° |
| 2026-04-25 09:15 | 33.90852 | 138.26042 | 33194 ft | 552 kts | 76° |
| 2026-04-25 09:16 | 33.92086 | 138.30384 | 32786 ft | 556 kts | 66° |
| 2026-04-25 09:16 | 33.93829 | 138.34561 | 32238 ft | 553 kts | 60° |
| 2026-04-25 09:16 | 33.95662 | 138.38560 | 31744 ft | 550 kts | 59° |
| 2026-04-25 09:16 | 33.97538 | 138.42583 | 31313 ft | 546 kts | 59° |
| 2026-04-25 09:17 | 34.01190 | 138.50532 | 30400 ft | 541 kts | 59° |
| 2026-04-25 09:17 | 34.02983 | 138.54529 | 29888 ft | 538 kts | 60° |
| 2026-04-25 09:17 | 34.04727 | 138.58453 | 29390 ft | 533 kts | 60° |
| 2026-04-25 09:18 | 34.06474 | 138.62408 | 28908 ft | 529 kts | 60° |
| 2026-04-25 09:18 | 34.08175 | 138.66264 | 28436 ft | 524 kts | 60° |
| 2026-04-25 09:18 | 34.09891 | 138.70156 | 27968 ft | 518 kts | 60° |
| 2026-04-25 09:18 | 34.11564 | 138.73946 | 27506 ft | 513 kts | 60° |
| 2026-04-25 09:19 | 34.13224 | 138.77709 | 27059 ft | 508 kts | 60° |
| 2026-04-25 09:19 | 34.14884 | 138.81474 | 26609 ft | 503 kts | 60° |
| 2026-04-25 09:19 | 34.16508 | 138.85161 | 26158 ft | 498 kts | 60° |
| 2026-04-25 09:19 | 34.18132 | 138.88852 | 25706 ft | 493 kts | 60° |
| 2026-04-25 09:20 | 34.19723 | 138.92471 | 25250 ft | 488 kts | 60° |
| 2026-04-25 09:20 | 34.21316 | 138.96105 | 24807 ft | 484 kts | 61° |
| 2026-04-25 09:20 | 34.22853 | 138.99644 | 24360 ft | 479 kts | 61° |
| 2026-04-25 09:20 | 34.24398 | 139.03223 | 23896 ft | 475 kts | 61° |
| 2026-04-25 09:21 | 34.25906 | 139.06720 | 23396 ft | 470 kts | 61° |
| 2026-04-25 09:21 | 34.27401 | 139.10183 | 22910 ft | 464 kts | 61° |
| 2026-04-25 09:21 | 34.28857 | 139.13664 | 22444 ft | 458 kts | 64° |
| 2026-04-25 09:21 | 34.30131 | 139.17132 | 22025 ft | 452 kts | 66° |
| 2026-04-25 09:22 | 34.31337 | 139.20648 | 21577 ft | 446 kts | 67° |
| 2026-04-25 09:22 | 34.32486 | 139.24077 | 21140 ft | 441 kts | 67° |
| 2026-04-25 09:22 | 34.33636 | 139.27503 | 20713 ft | 435 kts | 67° |
| 2026-04-25 09:22 | 34.34767 | 139.30844 | 20296 ft | 430 kts | 66° |
| 2026-04-25 09:23 | 34.35906 | 139.34178 | 19864 ft | 425 kts | 66° |
| 2026-04-25 09:23 | 34.37255 | 139.37325 | 19586 ft | 414 kts | 53° |
| 2026-04-25 09:23 | 34.39082 | 139.39923 | 19349 ft | 401 kts | 40° |
| 2026-04-25 09:23 | 34.41191 | 139.41994 | 19113 ft | 389 kts | 29° |
| 2026-04-25 09:24 | 34.43466 | 139.43694 | 18892 ft | 379 kts | 28° |
| 2026-04-25 09:24 | 34.45708 | 139.45348 | 18654 ft | 372 kts | 28° |
| 2026-04-25 09:24 | 34.47879 | 139.46953 | 18417 ft | 368 kts | 28° |
| 2026-04-25 09:24 | 34.50061 | 139.48576 | 18141 ft | 364 kts | 28° |
| 2026-04-25 09:25 | 34.52216 | 139.50187 | 17878 ft | 361 kts | 28° |
| 2026-04-25 09:25 | 34.54358 | 139.51794 | 17620 ft | 362 kts | 28° |
| 2026-04-25 09:25 | 34.56481 | 139.53390 | 17369 ft | 364 kts | 29° |
| 2026-04-25 09:25 | 34.58627 | 139.55008 | 17111 ft | 361 kts | 29° |
| 2026-04-25 09:26 | 34.60769 | 139.56626 | 16854 ft | 359 kts | 29° |
| 2026-04-25 09:26 | 34.62864 | 139.58210 | 16605 ft | 357 kts | 29° |
| 2026-04-25 09:26 | 34.64981 | 139.59812 | 16353 ft | 355 kts | 30° |
| 2026-04-25 09:26 | 34.67051 | 139.61379 | 16109 ft | 354 kts | 30° |
| 2026-04-25 09:27 | 34.69135 | 139.62958 | 15859 ft | 352 kts | 30° |
| 2026-04-25 09:27 | 34.71212 | 139.64533 | 15601 ft | 350 kts | 30° |
| 2026-04-25 09:27 | 34.73253 | 139.66080 | 15280 ft | 346 kts | 30° |
| 2026-04-25 09:27 | 34.75292 | 139.67628 | 14919 ft | 344 kts | 30° |
| 2026-04-25 09:28 | 34.77328 | 139.69174 | 14555 ft | 342 kts | 30° |
| 2026-04-25 09:28 | 34.79319 | 139.70686 | 14186 ft | 341 kts | 30° |
| 2026-04-25 09:28 | 34.81338 | 139.72221 | 13777 ft | 339 kts | 30° |
| 2026-04-25 09:28 | 34.83308 | 139.73720 | 13212 ft | 336 kts | 31° |
| 2026-04-25 09:29 | 34.85296 | 139.75233 | 12803 ft | 334 kts | 31° |
| 2026-04-25 09:29 | 34.87273 | 139.76739 | 12392 ft | 333 kts | 31° |
| 2026-04-25 09:29 | 34.89204 | 139.78209 | 12014 ft | 331 kts | 31° |
| 2026-04-25 09:29 | 34.91161 | 139.79702 | 11631 ft | 328 kts | 31° |
| 2026-04-25 09:30 | 34.93096 | 139.81178 | 11261 ft | 326 kts | 31° |
| 2026-04-25 09:30 | 34.95006 | 139.82636 | 10896 ft | 323 kts | 31° |
| 2026-04-25 09:30 | 34.96877 | 139.84065 | 10528 ft | 316 kts | 31° |
| 2026-04-25 09:30 | 34.98700 | 139.85459 | 10369 ft | 299 kts | 31° |
| 2026-04-25 09:31 | 35.00404 | 139.86762 | 10232 ft | 283 kts | 31° |
| 2026-04-25 09:31 | 35.01523 | 139.87618 | 10152 ft | 279 kts | 31° |
| 2026-04-25 09:31 | 35.03700 | 139.89284 | 9973 ft | 278 kts | 31° |
| 2026-04-25 09:31 | 35.05335 | 139.90535 | 9677 ft | 281 kts | 31° |
| 2026-04-25 09:32 | 35.06992 | 139.91804 | 9389 ft | 279 kts | 31° |
| 2026-04-25 09:32 | 35.08636 | 139.93065 | 9098 ft | 277 kts | 31° |
| 2026-04-25 09:32 | 35.10250 | 139.94302 | 8816 ft | 274 kts | 31° |
| 2026-04-25 09:32 | 35.11847 | 139.95528 | 8540 ft | 272 kts | 31° |
| 2026-04-25 09:33 | 35.13450 | 139.96757 | 8250 ft | 271 kts | 31° |
| 2026-04-25 09:33 | 35.15117 | 139.97811 | 7949 ft | 268 kts | 14° |
| 2026-04-25 09:33 | 35.16954 | 139.98113 | 7673 ft | 266 kts | 2° |
| 2026-04-25 09:33 | 35.18789 | 139.98162 | 7366 ft | 266 kts | 0° |
| 2026-04-25 09:34 | 35.20640 | 139.98190 | 7064 ft | 263 kts | 1° |
| 2026-04-25 09:34 | 35.22434 | 139.98233 | 6760 ft | 255 kts | 1° |
| 2026-04-25 09:34 | 35.24171 | 139.98284 | 6462 ft | 248 kts | 2° |
| 2026-04-25 09:34 | 35.25305 | 139.98293 | 6261 ft | 243 kts | 355° |
| 2026-04-25 09:35 | 35.26874 | 139.97597 | 5993 ft | 237 kts | 330° |
| 2026-04-25 09:35 | 35.28717 | 139.96237 | 5647 ft | 227 kts | 330° |
| 2026-04-25 09:35 | 35.30074 | 139.95265 | 5261 ft | 222 kts | 330° |
| 2026-04-25 09:35 | 35.30948 | 139.94644 | 5076 ft | 215 kts | 330° |
| 2026-04-25 09:36 | 35.32219 | 139.93744 | 4777 ft | 212 kts | 330° |
| 2026-04-25 09:36 | 35.33922 | 139.92540 | 4397 ft | 211 kts | 330° |
| 2026-04-25 09:36 | 35.35186 | 139.91646 | 4124 ft | 213 kts | 330° |
| 2026-04-25 09:36 | 35.36037 | 139.91045 | 3933 ft | 211 kts | 330° |
| 2026-04-25 09:37 | 35.37287 | 139.90162 | 3645 ft | 204 kts | 330° |
| 2026-04-25 09:37 | 35.38896 | 139.89024 | 3296 ft | 199 kts | 331° |
| 2026-04-25 09:37 | 35.40092 | 139.88178 | 3041 ft | 199 kts | 332° |
| 2026-04-25 09:37 | 35.40890 | 139.87614 | 2864 ft | 198 kts | 332° |
| 2026-04-25 09:38 | 35.42076 | 139.86775 | 2598 ft | 195 kts | 332° |
| 2026-04-25 09:38 | 35.43225 | 139.85962 | 2344 ft | 188 kts | 333° |
| 2026-04-25 09:38 | 35.44332 | 139.85177 | 2109 ft | 177 kts | 333° |
| 2026-04-25 09:38 | 35.45359 | 139.84449 | 1896 ft | 164 kts | 333° |
| 2026-04-25 09:39 | 35.46312 | 139.83775 | 1670 ft | 158 kts | 333° |
| 2026-04-25 09:39 | 35.47261 | 139.83104 | 1460 ft | 156 kts | 333° |
| 2026-04-25 09:39 | 35.48194 | 139.82444 | 1254 ft | 154 kts | 333° |
| 2026-04-25 09:40 | 35.50365 | 139.80907 | 779 ft | 156 kts | 333° |
| 2026-04-25 09:40 | 35.51005 | 139.80450 | 658 ft | 158 kts | 332° |
| 2026-04-25 09:40 | 35.51944 | 139.79781 | 480 ft | 157 kts | 332° |
| 2026-04-25 09:40 | 35.52883 | 139.79115 | 269 ft | 156 kts | 333° |
| 2026-04-25 09:41 | 35.53829 | 139.78444 | 48 ft | 157 kts | 333° |
| 2026-04-25 09:41 | 35.54685 | 139.77838 | 20 ft | 120 kts | 330° |
| 2026-04-25 09:41 | 35.55192 | 139.77480 | 21 ft | 44 kts | 330° |
| 2026-04-25 09:41 | 35.55361 | 139.77379 | 21 ft | 20 kts | 341° |
| 2026-04-25 09:42 | 35.55479 | 139.77354 | 20 ft | 15 kts | 359° |
| 2026-04-25 09:42 | 35.55541 | 139.77355 | 20 ft | 8 kts | 10° |
| 2026-04-25 09:42 | 35.55583 | 139.77402 | 20 ft | 10 kts | 59° |
| 2026-04-25 09:42 | 35.55623 | 139.77487 | 20 ft | 11 kts | 60° |
| 2026-04-25 09:43 | 35.55606 | 139.77567 | 23 ft | 11 kts | 147° |
| 2026-04-25 09:43 | 35.55542 | 139.77613 | 21 ft | 11 kts | 150° |
| 2026-04-25 09:43 | 35.55480 | 139.77657 | 21 ft | 10 kts | 150° |
| 2026-04-25 09:43 | 35.55419 | 139.77700 | 23 ft | 10 kts | 150° |
| 2026-04-25 09:44 | 35.55353 | 139.77747 | 21 ft | 13 kts | 149° |
| 2026-04-25 09:44 | 35.55254 | 139.77818 | 21 ft | 19 kts | 150° |
| 2026-04-25 09:44 | 35.55156 | 139.77887 | 23 ft | 15 kts | 150° |
| 2026-04-25 09:44 | 35.55077 | 139.77943 | 22 ft | 10 kts | 150° |
| 2026-04-25 09:45 | 35.55053 | 139.77991 | 21 ft | 6 kts | 72° |
| 2026-04-25 09:45 | 35.55076 | 139.78039 | 23 ft | 6 kts | 58° |
| 2026-04-25 09:45 | 35.55091 | 139.78068 | 22 ft | 2 kts | 58° |
| 2026-04-25 09:45 | 35.55094 | 139.78074 | 23 ft | 0 kts | 58° |